Time;durP1;ratioP1;P1;durP2;ratioP2;P2;SDS_P1;SDS_P2;PMS_P1;PMS_P2;Temp;Humidity;BMP_temperature;BMP_pressure;BME280_temperature;BME280_humidity;BME280_pressure;Samples;Min_cycle;Max_cycle;Signal;HPM_P1;HPM_P2
2023/02/23 00:01:23;;;;;;;;;33.00;31.33;;;;;11.75;100.00;100631.81;5016677;28;45498;-74
2023/02/23 00:03:50;;;;;;;;;43.67;37.33;;;;;11.64;100.00;100616.66;4997832;28;46134;-72
2023/02/23 00:06:17;;;;;;;;;33.67;32.33;;;;;11.65;100.00;100613.97;4997244;28;45435;-73
2023/02/23 00:08:44;;;;;;;;;24.00;23.00;;;;;11.53;100.00;100625.44;5016790;28;45608;-74
2023/02/23 00:11:49;;;;;;;;;28.33;23.33;;;;;11.53;100.00;100620.13;5014393;28;46597;-73
2023/02/23 00:14:14;;;;;;;;;34.33;30.00;;;;;11.33;100.00;100608.38;5015451;28;45408;-73
2023/02/23 00:16:44;;;;;;;;;27.67;24.00;;;;;11.35;100.00;100610.22;5015523;28;45499;-73
2023/02/23 00:19:13;;;;;;;;;28.67;25.67;;;;;11.39;100.00;100616.41;5014462;28;45786;-74
2023/02/23 00:21:42;;;;;;;;;21.00;20.00;;;;;11.29;100.00;100599.50;4993351;28;47802;-73
2023/02/23 00:24:14;;;;;;;;;26.00;22.00;;;;;11.32;100.00;100610.16;4997047;28;45568;-73
2023/02/23 00:26:41;;;;;;;;;26.67;23.67;;;;;11.21;100.00;100619.84;5015556;28;45806;-73
2023/02/23 00:29:09;;;;;;;;;25.00;23.67;;;;;11.14;100.00;100620.66;5015295;28;45465;-73
2023/02/23 00:31:37;;;;;;;;;28.33;24.00;;;;;10.90;100.00;100621.28;4996846;28;47044;-73
2023/02/23 00:34:03;;;;;;;;;27.67;25.67;;;;;10.83;100.00;100615.00;4996485;28;45525;-74
2023/02/23 00:36:32;;;;;;;;;30.33;24.00;;;;;10.77;100.00;100612.28;5015485;28;45511;-73
2023/02/23 00:39:01;;;;;;;;;25.00;23.33;;;;;10.71;100.00;100628.19;4996720;28;45649;-73
2023/02/23 00:41:28;;;;;;;;;31.33;31.33;;;;;10.65;100.00;100628.09;5014524;28;46533;-73
2023/02/23 00:43:58;;;;;;;;;24.33;22.00;;;;;10.61;100.00;100629.81;5030265;28;45573;-74
2023/02/23 00:46:26;;;;;;;;;18.33;17.67;;;;;10.55;100.00;100620.00;5016670;28;45371;-73
2023/02/23 00:48:56;;;;;;;;;22.00;22.00;;;;;10.48;100.00;100618.13;5035944;28;45299;-74
2023/02/23 00:51:29;;;;;;;;;27.00;24.00;;;;;10.46;100.00;100625.19;5036008;28;46398;-73
2023/02/23 00:53:56;;;;;;;;;24.33;21.00;;;;;10.39;100.00;100623.34;5034670;28;45519;-74
2023/02/23 00:56:22;;;;;;;;;24.33;21.33;;;;;10.40;100.00;100627.78;5035946;28;45505;-74
2023/02/23 00:58:48;;;;;;;;;26.67;22.33;;;;;10.39;100.00;100629.53;5035271;28;45527;-74
2023/02/23 01:01:14;;;;;;;;;23.00;22.00;;;;;10.45;100.00;100634.06;5016035;28;45388;-73
2023/02/23 01:03:43;;;;;;;;;23.00;22.67;;;;;10.46;100.00;100624.31;5033482;28;45452;-74
2023/02/23 01:06:11;;;;;;;;;25.67;22.00;;;;;10.46;100.00;100630.50;5034809;28;45599;-74
2023/02/23 01:08:39;;;;;;;;;19.67;16.33;;;;;10.43;100.00;100629.59;5034347;28;45515;-75
2023/02/23 01:11:11;;;;;;;;;23.67;20.67;;;;;10.36;100.00;100623.28;5015982;28;45556;-73
2023/02/23 01:13:38;;;;;;;;;18.33;16.67;;;;;10.26;100.00;100630.25;5034302;28;45742;-74
2023/02/23 01:16:09;;;;;;;;;19.33;17.00;;;;;10.26;100.00;100627.59;5034267;28;45479;-74
2023/02/23 01:18:37;;;;;;;;;21.67;20.67;;;;;10.23;100.00;100642.59;5034006;28;45466;-74
2023/02/23 01:21:04;;;;;;;;;16.33;16.33;;;;;10.19;100.00;100629.25;5033337;28;46287;-74
2023/02/23 01:23:30;;;;;;;;;21.33;17.33;;;;;10.19;100.00;100629.25;5032880;28;45776;-75
2023/02/23 01:25:56;;;;;;;;;23.33;19.00;;;;;10.11;100.00;100632.69;5034536;28;45363;-75
2023/02/23 01:28:26;;;;;;;;;20.33;18.67;;;;;10.07;100.00;100621.09;5016051;28;45356;-74
2023/02/23 01:30:54;;;;;;;;;16.00;14.00;;;;;10.00;100.00;100624.56;5022046;28;45621;-75
2023/02/23 01:33:19;;;;;;;;;16.33;14.67;;;;;9.96;100.00;100628.03;4996199;28;45613;-75
2023/02/23 01:35:56;;;;;;;;;27.00;20.33;;;;;10.02;100.00;100634.34;5014315;28;45351;-76
2023/02/23 01:38:21;;;;;;;;;19.33;19.00;;;;;9.96;100.00;100628.94;5014851;28;45441;-74
2023/02/23 01:40:47;;;;;;;;;23.00;20.33;;;;;9.96;100.00;100634.25;5014629;28;45840;-74
2023/02/23 01:43:19;;;;;;;;;22.67;19.00;;;;;10.00;100.00;100637.84;5013553;28;45467;-75
2023/02/23 01:45:45;;;;;;;;;19.00;16.00;;;;;9.95;100.00;100632.44;4997463;28;45459;-74
2023/02/23 01:48:18;;;;;;;;;21.33;16.00;;;;;10.01;100.00;100631.66;5014290;28;45688;-74
2023/02/23 01:50:49;;;;;;;;;24.67;20.00;;;;;9.97;100.00;100635.13;4996398;28;46770;-73
2023/02/23 01:53:16;;;;;;;;;14.67;14.67;;;;;9.88;100.00;100629.69;5011723;28;45446;-73
2023/02/23 01:55:42;;;;;;;;;19.33;18.33;;;;;9.78;100.00;100636.63;5013177;28;45430;-74
2023/02/23 01:58:15;;;;;;;;;21.67;20.33;;;;;9.80;100.00;100632.22;4995339;28;45348;-73
2023/02/23 02:00:49;;;;;;;;;17.67;15.33;;;;;9.72;100.00;100618.81;5013607;28;45403;-73
2023/02/23 02:03:31;;;;;;;;;15.00;15.00;;;;;9.71;100.00;100632.06;4995842;28;45467;-73
2023/02/23 02:06:00;;;;;;;;;20.00;16.33;;;;;9.63;100.00;100629.28;4995609;28;45426;-73
2023/02/23 02:08:28;;;;;;;;;19.00;15.00;;;;;9.54;100.00;100634.47;5013789;28;45400;-74
2023/02/23 02:10:55;;;;;;;;;15.67;15.67;;;;;9.49;100.00;100637.03;5012754;28;45384;-73
2023/02/23 02:13:25;;;;;;;;;18.67;15.67;;;;;9.53;100.00;100632.66;4995259;28;45353;-74
2023/02/23 02:16:21;;;;;;;;;18.33;12.00;;;;;9.52;100.00;100628.25;5013826;28;45634;-74
2023/02/23 02:19:04;;;;;;;;;15.33;14.00;;;;;9.47;100.00;100617.53;5012577;28;45443;-73
2023/02/23 02:22:07;;;;;;;;;18.67;14.00;;;;;9.47;100.00;100621.94;5013201;28;45589;-74
2023/02/23 02:25:11;;;;;;;;;21.67;17.67;;;;;9.48;100.00;100624.63;4994786;28;45638;-74
2023/02/23 02:27:50;;;;;;;;;15.00;11.00;;;;;9.44;100.00;100621.91;5013026;28;45372;-74
2023/02/23 02:30:18;;;;;;;;;17.33;15.67;;;;;9.41;100.00;100622.72;5012920;28;45534;-73
2023/02/23 02:33:10;;;;;;;;;19.00;14.67;;;;;9.49;100.00;100623.75;4995615;28;48193;-73
2023/02/23 02:36:20;;;;;;;;;16.33;16.00;;;;;9.51;100.00;100634.41;5013327;28;45922;-74
2023/02/23 02:39:06;;;;;;;;;17.33;14.67;;;;;9.48;100.00;100629.94;5013297;28;45371;-73
2023/02/23 02:41:52;;;;;;;;;11.00;9.00;;;;;9.49;100.00;100629.06;4996348;28;45305;-75
2023/02/23 02:44:35;;;;;;;;;19.33;14.67;;;;;9.53;100.00;100630.00;4991603;28;47247;-74
2023/02/23 02:47:07;;;;;;;;;21.67;13.33;;;;;9.51;100.00;100626.44;4993496;28;45414;-74
2023/02/23 02:49:51;;;;;;;;;13.33;13.33;;;;;9.55;100.00;100631.84;4993679;28;45350;-74
2023/02/23 02:52:34;;;;;;;;;15.00;14.00;;;;;9.52;100.00;100628.25;4993816;28;45451;-74
2023/02/23 02:55:12;;;;;;;;;14.67;12.67;;;;;9.48;100.00;100624.63;4992983;28;45994;-74
2023/02/23 02:57:39;;;;;;;;;17.00;14.33;;;;;9.46;100.00;100625.47;4993378;28;45532;-74
2023/02/23 04:18:38;;;;;;;;;14.00;11.33;;;;;9.19;100.00;100629.47;5014990;28;45466;-74
2023/02/23 04:21:05;;;;;;;;;9.00;9.00;;;;;9.13;100.00;100634.63;4997117;28;45453;-74
2023/02/23 04:23:31;;;;;;;;;13.67;9.33;;;;;9.01;100.00;100630.91;5017463;28;45320;-74
2023/02/23 04:25:57;;;;;;;;;14.67;12.67;;;;;9.08;100.00;100634.53;4998809;28;46868;-73
2023/02/23 04:28:26;;;;;;;;;15.00;12.33;;;;;9.09;100.00;100636.34;4997287;28;45564;-73
2023/02/23 04:30:52;;;;;;;;;12.33;9.33;;;;;9.07;100.00;100638.09;4997117;28;45539;-73
2023/02/23 04:33:18;;;;;;;;;12.67;9.33;;;;;9.06;100.00;100638.94;4995718;28;45430;-73
2023/02/23 04:35:43;;;;;;;;;15.00;13.00;;;;;9.01;100.00;100632.66;4996992;28;45496;-73
2023/02/23 04:38:09;;;;;;;;;16.33;14.00;;;;;9.08;100.00;100634.53;5015227;28;45379;-73
2023/02/23 04:40:35;;;;;;;;;18.33;16.67;;;;;9.13;100.00;100634.63;4998396;28;45438;-74
2023/02/23 04:43:00;;;;;;;;;13.00;12.00;;;;;9.15;100.00;100640.84;4997780;28;45391;-74
2023/02/23 04:45:26;;;;;;;;;13.33;11.33;;;;;9.12;100.00;100630.19;4997578;28;47229;-74
2023/02/23 04:47:52;;;;;;;;;15.00;15.00;;;;;9.19;100.00;100650.69;5015360;28;45458;-74
2023/02/23 04:50:18;;;;;;;;;20.33;18.33;;;;;9.15;100.00;100646.16;5014901;28;45435;-74
2023/02/23 04:52:43;;;;;;;;;14.67;13.00;;;;;9.09;100.00;100648.69;4999130;28;45622;-74
2023/02/23 04:55:18;;;;;;;;;20.00;18.00;;;;;9.11;100.00;100655.84;5015551;28;45526;-74
2023/02/23 04:57:44;;;;;;;;;12.00;10.33;;;;;8.98;100.00;100654.69;5016435;28;45785;-73
2023/02/23 05:00:11;;;;;;;;;18.00;18.00;;;;;8.96;100.00;100664.38;5015543;28;45578;-74
2023/02/23 05:02:37;;;;;;;;;22.67;21.33;;;;;8.92;100.00;100673.16;4998455;28;45616;-73
2023/02/23 05:05:03;;;;;;;;;21.67;19.00;;;;;8.95;100.00;100670.56;5015334;28;46356;-74
2023/02/23 05:07:28;;;;;;;;;18.67;17.00;;;;;8.93;100.00;100674.94;5015621;28;45462;-75
2023/02/23 05:09:53;;;;;;;;;18.33;17.67;;;;;8.89;100.00;100678.41;5015785;28;44805;-74
2023/02/23 05:12:19;;;;;;;;;19.00;18.00;;;;;8.81;100.00;100670.28;5015618;28;45399;-73
2023/02/23 05:14:49;;;;;;;;;20.33;18.00;;;;;8.89;100.00;100673.09;5015770;28;45434;-73
2023/02/23 05:17:14;;;;;;;;;23.67;23.67;;;;;8.81;100.00;100669.41;5017551;28;45509;-74
2023/02/23 05:19:40;;;;;;;;;27.33;22.33;;;;;8.91;100.00;100678.44;5016028;28;45544;-73
2023/02/23 05:22:06;;;;;;;;;25.33;21.67;;;;;8.99;100.00;100685.69;4999209;28;45548;-73
2023/02/23 05:24:31;;;;;;;;;23.33;20.00;;;;;9.01;100.00;100672.44;5014256;28;45878;-73
2023/02/23 05:26:57;;;;;;;;;13.67;11.00;;;;;9.07;100.00;100682.25;4996079;28;45373;-74
2023/02/23 05:29:23;;;;;;;;;23.00;20.00;;;;;9.13;100.00;100687.69;5016510;28;45418;-73
2023/02/23 05:31:50;;;;;;;;;22.33;21.33;;;;;9.12;100.00;100676.19;5014041;28;45421;-74
2023/02/23 05:34:18;;;;;;;;;13.33;9.67;;;;;9.12;100.00;100694.75;4996226;28;46895;-74
2023/02/23 05:36:43;;;;;;;;;25.00;22.67;;;;;9.12;100.00;100688.56;4995432;28;45542;-74
2023/02/23 05:39:09;;;;;;;;;23.33;21.00;;;;;9.13;100.00;100687.69;5014755;28;45457;-74
2023/02/23 05:41:34;;;;;;;;;20.33;18.67;;;;;9.10;100.00;100690.28;5011777;28;45454;-73
2023/02/23 05:44:01;;;;;;;;;20.00;18.33;;;;;9.10;100.00;100692.94;5025117;28;45526;-74
2023/02/23 05:46:28;;;;;;;;;21.00;21.00;;;;;9.05;100.00;100694.59;5014286;28;45490;-74
2023/02/23 05:48:59;;;;;;;;;16.00;13.00;;;;;9.06;100.00;100699.06;5015228;28;45566;-75
2023/02/23 05:51:25;;;;;;;;;24.33;20.67;;;;;8.95;100.00;100696.22;5033608;28;45465;-74
2023/02/23 05:53:51;;;;;;;;;18.67;18.00;;;;;8.90;100.00;100682.84;5034139;28;45664;-74
2023/02/23 05:56:21;;;;;;;;;23.67;20.33;;;;;9.01;100.00;100686.59;5032896;28;45542;-74
2023/02/23 05:58:52;;;;;;;;;25.33;22.33;;;;;9.01;100.00;100683.94;5014295;28;45454;-74
2023/02/23 06:01:18;;;;;;;;;28.33;20.33;;;;;8.94;100.00;100684.69;5032793;28;45452;-74
2023/02/23 06:03:45;;;;;;;;;26.67;22.33;;;;;8.90;100.00;100682.84;5032295;28;45433;-74
2023/02/23 06:06:11;;;;;;;;;24.67;22.33;;;;;8.89;100.00;100681.06;5032268;28;45389;-74
2023/02/23 06:08:37;;;;;;;;;25.33;21.67;;;;;8.87;100.00;100687.22;5014866;28;45288;-74
2023/02/23 06:11:03;;;;;;;;;22.67;22.33;;;;;8.79;100.00;100689.69;5034023;28;45383;-74
2023/02/23 06:13:30;;;;;;;;;25.33;20.33;;;;;8.78;100.00;100687.88;5032959;28;46690;-74
2023/02/23 06:15:56;;;;;;;;;20.67;20.33;;;;;8.79;100.00;100690.59;5033178;28;45479;-74
2023/02/23 06:18:21;;;;;;;;;29.00;23.00;;;;;8.80;100.00;100688.81;5015406;28;45009;-74
2023/02/23 06:24:09;;;;;;;;;25.67;22.00;;;;;8.81;100.00;100683.56;5033547;28;45845;-73
2023/02/23 06:26:35;;;;;;;;;19.00;19.00;;;;;8.87;100.00;100676.59;5035112;28;45518;-73
2023/02/23 06:29:00;;;;;;;;;16.33;14.00;;;;;8.85;100.00;100688.91;5035534;28;45439;-74
2023/02/23 06:31:26;;;;;;;;;20.33;20.33;;;;;8.87;100.00;100687.22;5013902;28;45577;-74
2023/02/23 06:33:59;;;;;;;;;20.67;20.67;;;;;8.92;100.00;100690.81;5031503;28;45493;-74
2023/02/23 06:36:24;;;;;;;;;24.00;22.67;;;;;8.91;100.00;100683.75;5014857;28;45602;-74
2023/02/23 06:38:49;;;;;;;;;22.67;22.00;;;;;8.96;100.00;100679.41;5033689;28;45621;-74
2023/02/23 06:41:15;;;;;;;;;25.67;23.67;;;;;8.92;100.00;100683.75;5033310;28;45461;-74
2023/02/23 06:43:40;;;;;;;;;29.00;23.33;;;;;8.89;100.00;100686.38;5011279;28;45520;-74
2023/02/23 06:46:07;;;;;;;;;15.33;14.67;;;;;8.97;100.00;100691.81;5016427;28;45867;-74
2023/02/23 06:48:34;;;;;;;;;22.67;22.67;;;;;9.07;100.00;100695.53;5017965;28;44873;-74
2023/02/23 06:50:59;;;;;;;;;18.00;17.67;;;;;9.29;100.00;100694.19;5016968;28;45495;-74
2023/02/23 06:53:25;;;;;;;;;20.67;19.67;;;;;9.52;100.00;100700.81;5015120;28;47032;-75
2023/02/23 06:55:57;;;;;;;;;24.33;20.33;;;;;9.74;100.00;100711.81;5013609;28;45406;-75
2023/02/23 06:58:22;;;;;;;;;27.67;23.33;;;;;9.54;100.00;100711.47;5012625;28;45497;-75
2023/02/23 07:00:48;;;;;;;;;25.67;23.67;;;;;9.35;100.00;100708.47;5009122;28;45969;-74
2023/02/23 07:03:13;;;;;;;;;23.33;21.67;;;;;9.19;100.00;100707.28;4994858;28;45428;-74
2023/02/23 07:05:40;;;;;;;;;29.50;25.50;;;;;9.16;100.00;100703.69;4993386;28;45420;-75
2023/02/23 07:08:09;;;;;;;;;28.00;21.33;;;;;9.12;100.00;100712.44;4998811;28;45477;-73
2023/02/23 07:10:34;;;;;;;;;29.67;26.33;;;;;9.10;100.00;100711.53;5014711;28;45514;-82
2023/02/23 07:13:00;;;;;;;;;24.33;21.33;;;;;9.15;100.00;100715.13;5005314;28;46108;-84
2023/02/23 07:15:26;;;;;;;;;27.67;23.33;;;;;9.23;100.00;100713.56;5014323;28;44967;-84
2023/02/23 07:17:53;;;;;;;;;30.33;25.00;;;;;9.33;100.00;100712.88;5028240;28;45592;-84
2023/02/23 07:20:25;;;;;;;;;32.00;28.33;;;;;9.27;100.00;100722.44;5020377;28;45544;-84
2023/02/23 07:22:50;;;;;;;;;24.33;21.67;;;;;9.25;100.00;100733.06;5019096;28;46761;-84
2023/02/23 07:25:16;;;;;;;;;26.00;25.00;;;;;9.25;100.00;100729.47;5025923;28;45392;-85
2023/02/23 07:27:45;;;;;;;;;22.33;17.33;;;;;9.24;100.00;100731.25;5015708;28;45003;-85
2023/02/23 07:30:15;;;;;;;;;37.00;32.00;;;;;9.44;100.00;100746.66;5021622;28;45335;-84
2023/02/23 07:32:40;;;;;;;;;32.33;28.67;;;;;9.31;100.00;100737.56;5013230;28;47122;-85
2023/02/23 07:35:07;;;;;;;;;26.00;23.67;;;;;9.32;100.00;100740.25;5004241;28;45482;-84
2023/02/23 07:37:32;;;;;;;;;33.33;26.00;;;;;9.35;100.00;100745.63;5025095;28;44930;-84
2023/02/23 07:39:58;;;;;;;;;30.67;27.00;;;;;9.30;100.00;100731.38;5022938;28;45414;-85
2023/02/23 07:42:28;;;;;;;;;36.33;30.00;;;;;9.58;100.00;100763.75;5027258;28;47499;-84
2023/02/23 07:44:53;;;;;;;;;35.00;31.00;;;;;9.54;100.00;100735.34;5016428;28;44932;-86
2023/02/23 07:47:19;;;;;;;;;31.33;26.00;;;;;9.62;100.00;100744.34;5007639;28;45485;-85
2023/02/23 07:49:44;;;;;;;;;36.00;25.00;;;;;9.59;100.00;100736.31;5026020;28;45084;-85
2023/02/23 07:52:10;;;;;;;;;33.00;30.67;;;;;9.73;100.00;100757.81;5017282;28;45153;-84
2023/02/23 07:58:00;;;;;;;;;31.67;30.33;;;;;9.84;100.00;100755.31;5011582;28;45343;-85
2023/02/23 08:00:28;;;;;;;;;32.33;30.00;;;;;9.78;100.00;100740.22;5028228;28;45449;-85
2023/02/23 08:02:54;;;;;;;;;30.67;21.67;;;;;9.92;100.00;100759.03;5024323;28;45276;-85
2023/02/23 08:05:20;;;;;;;;;34.33;34.33;;;;;10.01;100.00;100764.50;5026286;28;45493;-83
2023/02/23 08:07:51;;;;;;;;;29.00;26.67;;;;;10.09;100.00;100760.19;5030000;28;45397;-84
2023/02/23 08:10:23;;;;;;;;;34.67;29.00;;;;;10.03;100.00;100762.75;5017265;28;45644;-85
2023/02/23 08:12:56;;;;;;;;;35.00;29.00;;;;;10.07;100.00;100764.59;5045560;28;47342;-85
2023/02/23 08:15:30;;;;;;;;;27.33;23.00;;;;;10.13;100.00;100755.84;5023904;28;45367;-83
2023/02/23 08:18:24;;;;;;;;;;;;;;;;;;;;;
2023/02/23 08:20:56;;;;;;;;;32.00;30.67;;;;;10.02;100.00;100729.09;5002943;28;65332;-83
2023/02/23 08:23:27;;;;;;;;;34.00;31.00;;;;;10.16;100.00;100729.28;5017470;28;45071;-83
2023/02/23 08:26:07;;;;;;;;;40.00;37.00;;;;;10.09;100.00;100715.03;5021990;28;45358;-83
2023/02/23 08:29:03;;;;;;;;;35.50;29.50;;;;;10.03;100.00;100714.94;5008235;28;44867;-83
2023/02/23 08:31:29;;;;;;;;;41.00;34.67;;;;;10.15;100.00;100735.50;5017345;28;46175;-83
2023/02/23 08:34:13;;;;;;;;;37.67;31.67;;;;;10.21;100.00;100741.78;5024932;28;46079;-84
2023/02/23 08:37:24;;;;;;;;;;;;;;;;;;;;;
2023/02/23 08:40:56;;;;;;;;;;;;;;;;;;;;;
2023/02/23 08:43:40;;;;;;;;;32.00;28.67;;;;;10.21;100.00;100773.69;4915739;28;64885;-83
2023/02/23 08:46:31;;;;;;;;;42.00;33.00;;;;;9.96;100.00;100751.13;4926661;28;45538;-83
2023/02/23 08:49:12;;;;;;;;;42.33;32.67;;;;;10.10;100.00;100732.78;4926375;28;45377;-84
2023/02/23 08:52:02;;;;;;;;;38.33;30.67;;;;;10.26;100.00;100743.63;4924361;28;44821;-83
2023/02/23 08:54:27;;;;;;;;;32.33;28.67;;;;;10.33;100.00;100761.50;4926799;28;45455;-84
2023/02/23 08:56:58;;;;;;;;;35.00;34.00;;;;;10.41;100.00;100775.81;4906005;28;46761;-83
2023/02/23 08:59:26;;;;;;;;;39.00;35.33;;;;;10.40;100.00;100766.03;4922880;28;45540;-83
2023/02/23 09:05:27;;;;;;;;;33.33;31.67;;;;;10.49;100.00;100736.03;4964666;28;45299;-85
2023/02/23 09:08:13;;;;;;;;;39.00;33.67;;;;;10.67;100.00;100759.34;4966785;28;47007;-83
2023/02/23 09:10:42;;;;;;;;;40.00;37.00;;;;;10.68;100.00;100774.41;4944246;28;45559;-83
2023/02/23 09:13:10;;;;;;;;;26.00;23.67;;;;;10.57;100.00;100739.69;4962030;28;45627;-82
2023/02/23 09:15:38;;;;;;;;;34.00;32.33;;;;;10.60;100.00;100745.97;4951001;28;45789;-83
2023/02/23 09:18:15;;;;;;;;;40.00;32.33;;;;;10.72;100.00;100786.88;4966270;28;45734;-83
2023/02/23 09:20:48;;;;;;;;;33.00;31.67;;;;;10.56;100.00;100797.31;4974986;28;44919;-83
2023/02/23 09:23:48;;;;;;;;;42.67;34.00;;;;;10.46;100.00;100792.69;4985769;28;45313;-83
2023/02/23 09:26:17;;;;;;;;;33.67;28.33;;;;;10.56;100.00;100799.97;4917029;28;45871;-82
2023/02/23 09:28:43;;;;;;;;;37.00;34.00;;;;;10.49;100.00;100792.75;4915470;28;46848;-83
2023/02/23 09:31:20;;;;;;;;;44.33;34.00;;;;;10.43;100.00;100784.69;4929864;28;45011;-83
2023/02/23 09:33:49;;;;;;;;;36.00;28.33;;;;;10.26;100.00;100756.91;4914417;28;45374;-82
2023/02/23 09:36:20;;;;;;;;;43.67;35.33;;;;;10.56;100.00;100802.63;4910569;28;45439;-83
2023/02/23 09:39:09;;;;;;;;;34.00;30.33;;;;;10.35;100.00;100792.53;4911855;28;46268;-84
2023/02/23 09:41:59;;;;;;;;;36.33;31.33;;;;;10.36;100.00;100810.28;4920384;28;45628;-83
2023/02/23 09:44:50;;;;;;;;;31.00;27.67;;;;;10.45;100.00;100816.63;4917733;28;44953;-83
2023/02/23 09:47:58;;;;;;;;;38.33;35.33;;;;;10.44;100.00;100807.72;4921756;28;45438;-82
2023/02/23 09:50:42;;;;;;;;;35.00;32.67;;;;;10.45;100.00;100798.91;4922817;28;46544;-83
2023/02/23 09:53:28;;;;;;;;;41.33;37.00;;;;;10.73;100.00;100817.94;4930269;28;45101;-83
2023/02/23 09:56:09;;;;;;;;;38.67;32.67;;;;;10.71;100.00;100807.28;4927739;28;46287;-84
2023/02/23 09:58:44;;;;;;;;;27.67;24.67;;;;;10.77;100.00;100817.13;4926412;28;45470;-84
2023/02/23 10:01:52;;;;;;;;;33.33;28.33;;;;;10.59;100.00;100785.81;4909354;28;47474;-83
2023/02/23 10:05:01;;;;;;;;;24.67;23.00;;;;;10.59;100.00;100757.44;4943446;28;45544;-84
2023/02/23 10:07:42;;;;;;;;;40.00;35.67;;;;;10.88;100.00;100806.63;4902791;28;45606;-82
2023/02/23 10:10:44;;;;;;;;;37.67;30.33;;;;;10.95;100.00;100814.72;4938381;28;45650;-84
2023/02/23 10:27:33;;;;;;;;;29.67;25.33;;;;;11.20;100.00;100765.34;4863926;29;45978;-82
2023/02/23 10:33:52;;;;;;;;;24.67;23.67;;;;;11.28;100.00;100761.88;4897223;29;45480;-85
2023/02/23 10:36:53;;;;;;;;;;;;;;;;;;;;;
2023/02/23 10:39:28;;;;;;;;;27.33;23.67;;;;;11.50;100.00;100798.53;4881737;28;75155;-83
2023/02/23 10:42:17;;;;;;;;;31.00;28.33;;;;;11.56;100.00;100800.38;5010320;28;44838;-83
2023/02/23 10:48:07;;;;;;;;;29.00;29.00;;;;;11.61;100.00;100785.31;4945907;28;45742;-83
2023/02/23 10:54:45;;;;;;;;;55.33;45.33;;;;;11.57;100.00;100805.72;4863872;29;45956;-83
2023/02/23 10:57:37;;;;;;;;;29.00;27.33;;;;;11.36;100.00;100771.72;4874881;29;45565;-81
2023/02/23 11:00:29;;;;;;;;;24.67;24.33;;;;;11.66;100.00;100807.56;4864032;29;45363;-82
2023/02/23 11:03:39;;;;;;;;;25.67;22.67;;;;;11.61;100.00;100780.91;4885149;29;45119;-84
2023/02/23 11:09:47;;;;;;;;;31.00;29.33;;;;;11.76;100.00;100764.16;4869558;29;45361;-84
2023/02/23 11:12:21;;;;;;;;;28.67;28.67;;;;;11.92;100.00;100773.22;4868745;29;45585;-85
2023/02/23 11:16:05;;;;;;;;;31.67;30.00;;;;;12.09;100.00;100781.34;4870698;29;48030;-83
2023/02/23 11:19:19;;;;;;;;;36.33;28.00;;;;;12.07;100.00;100763.56;4894094;29;44872;-83
2023/02/23 11:21:56;;;;;;;;;27.67;26.00;;;;;12.01;100.00;100745.75;4818833;29;45527;-83
2023/02/23 11:24:41;;;;;;;;;32.67;26.67;;;;;12.05;100.00;100755.56;4837366;29;45774;-82
2023/02/23 11:27:26;;;;;;;;;28.00;25.67;;;;;11.98;100.00;100753.75;4862162;29;46792;-82
2023/02/23 11:30:20;;;;;;;;;38.67;32.67;;;;;12.15;100.00;100775.19;4876577;28;45294;-83
2023/02/23 11:39:44;;;;;;;;;;;;;;;;;;;;;
2023/02/23 11:42:25;;;;;;;;;;;;;;;;;;;;;
2023/02/23 11:45:16;;;;;;;;;30.33;25.00;;;;;11.94;100.00;100778.59;4899972;28;70780;-84
2023/02/23 11:48:54;;;;;;;;;37.33;33.67;;;;;12.07;100.00;100787.56;4958090;28;45444;-83
2023/02/23 11:55:07;;;;;;;;;32.67;30.33;;;;;12.32;100.00;100769.97;4959803;28;44912;-83
2023/02/23 11:57:36;;;;;;;;;29.33;28.33;;;;;12.01;100.00;100727.97;4956598;28;45465;-85
2023/02/23 12:00:11;;;;;;;;;87.00;71.25;;;;;12.14;100.00;100762.72;5014313;28;45390;-75
2023/02/23 12:03:06;;;;;;;;;52.00;41.00;;;;;12.18;100.00;100769.91;5020457;28;46683;-74
2023/02/23 12:05:32;;;;;;;;;28.67;27.33;;;;;12.03;100.00;100757.31;5019553;28;45396;-75
2023/02/23 12:08:15;;;;;;;;;24.33;17.67;;;;;12.21;100.00;100769.91;5036909;28;45537;-75
2023/02/23 12:10:46;;;;;;;;;25.33;24.67;;;;;12.09;100.00;100754.69;5016505;28;45616;-75
2023/02/23 12:13:24;;;;;;;;;28.33;25.33;;;;;12.18;100.00;100768.13;5033780;28;45364;-74
2023/02/23 12:16:11;;;;;;;;;21.67;18.33;;;;;12.20;100.00;100768.13;5037565;28;45601;-74
2023/02/23 12:19:05;;;;;;;;;24.00;23.33;;;;;12.11;100.00;100774.28;5046991;28;45849;-74
2023/02/23 12:21:35;;;;;;;;;24.33;24.33;;;;;12.00;100.00;100766.19;5035039;28;46234;-75
2023/02/23 12:24:09;;;;;;;;;21.67;17.33;;;;;12.10;100.00;100759.16;5019945;28;48229;-74
2023/02/23 12:26:59;;;;;;;;;24.67;23.33;;;;;12.10;100.00;100759.16;5016864;28;45602;-73
2023/02/23 12:29:56;;;;;;;;;24.00;21.33;;;;;12.12;100.00;100764.50;4960179;28;45507;-75
2023/02/23 12:32:32;;;;;;;;;26.67;23.33;;;;;12.15;100.00;100759.19;4942231;28;45503;-76
2023/02/23 12:35:25;;;;;;;;;26.00;24.00;;;;;12.17;100.00;100757.44;4968369;28;45730;-76
2023/02/23 12:38:05;;;;;;;;;27.67;21.67;;;;;12.17;100.00;100753.00;4961945;28;45387;-74
2023/02/23 12:40:38;;;;;;;;;31.00;25.00;;;;;12.21;100.00;100756.56;4958937;28;45408;-75
2023/02/23 12:43:29;;;;;;;;;23.00;18.67;;;;;12.15;100.00;100759.19;4940218;28;45741;-75
2023/02/23 12:46:07;;;;;;;;;23.33;23.00;;;;;12.12;100.00;100757.41;4957977;28;45606;-74
2023/02/23 12:49:01;;;;;;;;;20.00;20.00;;;;;12.11;100.00;100757.38;4957427;28;45511;-75
2023/02/23 12:52:09;;;;;;;;;25.00;23.00;;;;;12.11;100.00;100766.28;4939485;28;45500;-76
2023/02/23 12:54:36;;;;;;;;;23.67;23.33;;;;;12.04;100.00;100763.53;4956808;28;45578;-75
2023/02/23 12:57:31;;;;;;;;;24.33;22.67;;;;;12.19;100.00;100772.56;4964805;28;45497;-74
2023/02/23 13:03:43;;;;;;;;;17.33;13.00;;;;;12.30;100.00;100758.41;4961750;28;45457;-75
2023/02/23 13:06:29;;;;;;;;;26.33;22.33;;;;;12.33;100.00;100754.00;4970172;28;44851;-75
2023/02/23 13:12:28;;;;;;;;;20.67;20.33;;;;;12.48;100.00;100760.31;5026459;28;45727;-74
2023/02/23 13:15:17;;;;;;;;;29.00;22.00;;;;;12.51;100.00;100753.22;5037852;28;45322;-76
2023/02/23 13:18:05;;;;;;;;;30.67;24.00;;;;;12.50;100.00;100756.81;5012305;28;45471;-74
2023/02/23 13:20:53;;;;;;;;;27.00;22.33;;;;;12.45;100.00;100745.19;5012114;28;47055;-74
2023/02/23 13:23:35;;;;;;;;;30.00;24.33;;;;;12.32;100.00;100719.31;5012087;28;45472;-74
2023/02/23 13:26:16;;;;;;;;;18.00;18.00;;;;;12.49;100.00;100749.66;5011720;28;45511;-73
2023/02/23 13:28:55;;;;;;;;;24.00;21.33;;;;;12.68;100.00;100741.75;5010143;28;45526;-74
2023/02/23 13:31:23;;;;;;;;;18.33;16.00;;;;;12.74;100.00;100734.66;5011964;28;47010;-75
2023/02/23 13:33:52;;;;;;;;;23.00;21.33;;;;;12.86;100.00;100731.19;5017050;28;45617;-74
2023/02/23 13:36:20;;;;;;;;;23.67;23.00;;;;;12.93;100.00;100727.66;5012373;28;45406;-74
2023/02/23 13:39:09;;;;;;;;;29.00;24.00;;;;;12.93;100.00;100722.31;5025758;28;45485;-74
2023/02/23 13:41:43;;;;;;;;;22.67;22.00;;;;;12.98;100.00;100717.88;5024401;28;45357;-74
2023/02/23 13:44:17;;;;;;;;;28.33;25.00;;;;;13.10;100.00;100726.81;5025325;28;45608;-74
2023/02/23 13:47:13;;;;;;;;;21.00;18.33;;;;;13.14;100.00;100713.47;5009465;28;45054;-73
2023/02/23 13:50:06;;;;;;;;;28.33;23.33;;;;;13.15;100.00;100719.75;5010057;28;45376;-74
2023/02/23 13:52:41;;;;;;;;;26.33;21.67;;;;;13.08;100.00;100718.81;5031425;28;45600;-74
2023/02/23 13:55:46;;;;;;;;;22.33;17.67;;;;;13.09;100.00;100709.94;5010969;28;45525;-75
2023/02/23 13:58:27;;;;;;;;;24.00;22.00;;;;;13.08;100.00;100717.94;5012796;28;45387;-83
2023/02/23 14:04:35;;;;;;;;;24.33;20.67;;;;;13.21;100.00;100727.78;5028433;28;44839;-84
2023/02/23 14:11:29;;;;;;;;;26.00;24.67;;;;;13.04;100.00;100710.78;4972618;28;44848;-84
2023/02/23 14:14:20;;;;;;;;;26.00;21.33;;;;;12.99;100.00;100709.00;5016398;28;45576;-84